sensor_id;sensor_type;location;lat;lon;timestamp;temperature;humidity
59855;DHT22;45732;52.850;6.896;2023-03-14T00:01:37;11.10;99.90
59855;DHT22;45732;52.850;6.896;2023-03-14T00:04:04;11.20;99.90
59855;DHT22;45732;52.850;6.896;2023-03-14T00:06:30;11.10;99.90
59855;DHT22;45732;52.850;6.896;2023-03-14T00:08:57;11.10;99.90
59855;DHT22;45732;52.850;6.896;2023-03-14T00:11:22;11.10;99.90
59855;DHT22;45732;52.850;6.896;2023-03-14T00:13:49;11.10;99.90
59855;DHT22;45732;52.850;6.896;2023-03-14T00:16:16;11.10;99.90
59855;DHT22;45732;52.850;6.896;2023-03-14T00:18:41;11.20;99.90
59855;DHT22;45732;52.850;6.896;2023-03-14T00:21:09;11.20;99.90
59855;DHT22;45732;52.850;6.896;2023-03-14T00:23:38;11.20;99.90
59855;DHT22;45732;52.850;6.896;2023-03-14T00:26:08;11.20;99.90
59855;DHT22;45732;52.850;6.896;2023-03-14T00:28:34;11.20;99.90
59855;DHT22;45732;52.850;6.896;2023-03-14T00:31:05;11.20;99.90
59855;DHT22;45732;52.850;6.896;2023-03-14T00:33:31;11.30;99.90
59855;DHT22;45732;52.850;6.896;2023-03-14T00:36:08;11.30;99.90
59855;DHT22;45732;52.850;6.896;2023-03-14T00:38:35;11.20;99.90
59855;DHT22;45732;52.850;6.896;2023-03-14T00:41:12;11.10;99.90
59855;DHT22;45732;52.850;6.896;2023-03-14T00:43:38;11.00;99.90
59855;DHT22;45732;52.850;6.896;2023-03-14T00:46:05;10.90;99.90
59855;DHT22;45732;52.850;6.896;2023-03-14T00:48:31;10.90;99.90
59855;DHT22;45732;52.850;6.896;2023-03-14T00:50:57;10.80;99.90
59855;DHT22;45732;52.850;6.896;2023-03-14T00:53:23;10.80;99.90
59855;DHT22;45732;52.850;6.896;2023-03-14T00:55:49;10.70;99.90
59855;DHT22;45732;52.850;6.896;2023-03-14T00:58:16;10.70;99.90
59855;DHT22;45732;52.850;6.896;2023-03-14T01:00:43;10.70;99.90
59855;DHT22;45732;52.850;6.896;2023-03-14T01:03:09;10.60;99.90
59855;DHT22;45732;52.850;6.896;2023-03-14T01:05:36;10.60;99.90
59855;DHT22;45732;52.850;6.896;2023-03-14T01:08:02;10.60;99.90
59855;DHT22;45732;52.850;6.896;2023-03-14T01:10:28;10.60;99.90
59855;DHT22;45732;52.850;6.896;2023-03-14T01:12:54;10.50;99.90
59855;DHT22;45732;52.850;6.896;2023-03-14T01:15:20;10.50;99.90
59855;DHT22;45732;52.850;6.896;2023-03-14T01:17:46;10.50;99.90
59855;DHT22;45732;52.850;6.896;2023-03-14T01:20:13;10.40;99.90
59855;DHT22;45732;52.850;6.896;2023-03-14T01:22:41;10.40;99.90
59855;DHT22;45732;52.850;6.896;2023-03-14T01:25:10;10.30;99.90
59855;DHT22;45732;52.850;6.896;2023-03-14T01:27:36;10.30;99.90
59855;DHT22;45732;52.850;6.896;2023-03-14T01:30:02;10.30;99.90
59855;DHT22;45732;52.850;6.896;2023-03-14T01:32:29;10.20;99.90
59855;DHT22;45732;52.850;6.896;2023-03-14T01:34:55;10.20;99.90
59855;DHT22;45732;52.850;6.896;2023-03-14T01:37:21;10.10;99.90
59855;DHT22;45732;52.850;6.896;2023-03-14T01:39:47;10.00;99.90
59855;DHT22;45732;52.850;6.896;2023-03-14T01:42:13;10.00;99.90
59855;DHT22;45732;52.850;6.896;2023-03-14T01:44:54;10.00;99.90
59855;DHT22;45732;52.850;6.896;2023-03-14T01:47:20;10.00;99.90
59855;DHT22;45732;52.850;6.896;2023-03-14T01:49:49;10.00;99.90
59855;DHT22;45732;52.850;6.896;2023-03-14T01:52:28;10.00;99.90
59855;DHT22;45732;52.850;6.896;2023-03-14T01:55:05;10.00;99.90
59855;DHT22;45732;52.850;6.896;2023-03-14T01:58:02;9.90;99.90
59855;DHT22;45732;52.850;6.896;2023-03-14T02:00:29;9.90;99.90
59855;DHT22;45732;52.850;6.896;2023-03-14T02:03:09;9.90;99.90
59855;DHT22;45732;52.850;6.896;2023-03-14T02:05:38;9.90;99.90
59855;DHT22;45732;52.850;6.896;2023-03-14T02:08:08;9.90;99.90
59855;DHT22;45732;52.850;6.896;2023-03-14T02:10:41;9.90;99.90
59855;DHT22;45732;52.850;6.896;2023-03-14T02:13:08;10.00;99.90
59855;DHT22;45732;52.850;6.896;2023-03-14T02:15:34;10.00;99.90
59855;DHT22;45732;52.850;6.896;2023-03-14T02:18:02;10.00;99.90
59855;DHT22;45732;52.850;6.896;2023-03-14T02:20:49;10.00;99.90
59855;DHT22;45732;52.850;6.896;2023-03-14T02:26:13;10.10;99.90
59855;DHT22;45732;52.850;6.896;2023-03-14T02:28:41;10.10;99.90
59855;DHT22;45732;52.850;6.896;2023-03-14T02:31:08;10.20;99.90
59855;DHT22;45732;52.850;6.896;2023-03-14T02:33:35;10.10;99.90
59855;DHT22;45732;52.850;6.896;2023-03-14T02:36:07;10.20;99.90
59855;DHT22;45732;52.850;6.896;2023-03-14T02:38:47;10.20;99.90
59855;DHT22;45732;52.850;6.896;2023-03-14T02:41:16;10.20;99.90
59855;DHT22;45732;52.850;6.896;2023-03-14T02:43:41;10.10;99.90
59855;DHT22;45732;52.850;6.896;2023-03-14T02:46:10;10.20;99.90
59855;DHT22;45732;52.850;6.896;2023-03-14T02:48:45;10.20;99.90
59855;DHT22;45732;52.850;6.896;2023-03-14T02:51:14;10.20;99.90
59855;DHT22;45732;52.850;6.896;2023-03-14T02:53:40;10.20;99.90
59855;DHT22;45732;52.850;6.896;2023-03-14T02:56:07;10.20;99.90
59855;DHT22;45732;52.850;6.896;2023-03-14T02:58:33;10.20;99.90
59855;DHT22;45732;52.850;6.896;2023-03-14T03:00:59;10.20;99.90
59855;DHT22;45732;52.850;6.896;2023-03-14T03:03:25;10.20;99.90
59855;DHT22;45732;52.850;6.896;2023-03-14T03:05:52;10.20;99.90
59855;DHT22;45732;52.850;6.896;2023-03-14T03:08:19;10.20;99.90
59855;DHT22;45732;52.850;6.896;2023-03-14T03:10:46;10.20;99.90
59855;DHT22;45732;52.850;6.896;2023-03-14T03:13:11;10.10;99.90
59855;DHT22;45732;52.850;6.896;2023-03-14T03:15:37;10.10;99.90
59855;DHT22;45732;52.850;6.896;2023-03-14T03:18:03;10.10;99.90
59855;DHT22;45732;52.850;6.896;2023-03-14T03:20:29;10.00;99.90
59855;DHT22;45732;52.850;6.896;2023-03-14T03:22:55;9.90;99.90
59855;DHT22;45732;52.850;6.896;2023-03-14T03:25:20;9.80;99.90
59855;DHT22;45732;52.850;6.896;2023-03-14T03:27:46;9.80;99.90
59855;DHT22;45732;52.850;6.896;2023-03-14T03:30:12;9.70;99.90
59855;DHT22;45732;52.850;6.896;2023-03-14T03:32:38;9.70;99.90
59855;DHT22;45732;52.850;6.896;2023-03-14T03:35:04;9.60;99.90
59855;DHT22;45732;52.850;6.896;2023-03-14T03:37:31;9.60;99.90
59855;DHT22;45732;52.850;6.896;2023-03-14T03:39:57;9.60;99.90
59855;DHT22;45732;52.850;6.896;2023-03-14T03:42:23;9.70;99.90
59855;DHT22;45732;52.850;6.896;2023-03-14T03:44:48;9.70;99.90
59855;DHT22;45732;52.850;6.896;2023-03-14T03:47:15;9.70;99.90
59855;DHT22;45732;52.850;6.896;2023-03-14T03:49:41;9.70;99.90
59855;DHT22;45732;52.850;6.896;2023-03-14T03:52:06;9.70;99.90
59855;DHT22;45732;52.850;6.896;2023-03-14T03:54:32;9.60;99.90
59855;DHT22;45732;52.850;6.896;2023-03-14T03:56:58;9.70;99.90
59855;DHT22;45732;52.850;6.896;2023-03-14T03:59:24;9.60;99.90
59855;DHT22;45732;52.850;6.896;2023-03-14T04:01:49;9.70;99.90
59855;DHT22;45732;52.850;6.896;2023-03-14T04:04:15;9.70;99.90
59855;DHT22;45732;52.850;6.896;2023-03-14T04:06:41;9.60;99.90
59855;DHT22;45732;52.850;6.896;2023-03-14T04:09:08;9.60;99.90
59855;DHT22;45732;52.850;6.896;2023-03-14T04:11:34;9.70;99.90
59855;DHT22;45732;52.850;6.896;2023-03-14T04:14:00;9.60;99.90
59855;DHT22;45732;52.850;6.896;2023-03-14T04:16:26;9.60;99.90
59855;DHT22;45732;52.850;6.896;2023-03-14T04:18:53;9.60;99.90
59855;DHT22;45732;52.850;6.896;2023-03-14T04:21:19;9.60;99.90
59855;DHT22;45732;52.850;6.896;2023-03-14T04:23:45;9.60;99.90
59855;DHT22;45732;52.850;6.896;2023-03-14T04:26:10;9.60;99.90
59855;DHT22;45732;52.850;6.896;2023-03-14T04:28:36;9.60;99.90
59855;DHT22;45732;52.850;6.896;2023-03-14T04:31:14;9.60;99.90
59855;DHT22;45732;52.850;6.896;2023-03-14T04:33:40;9.50;99.90
59855;DHT22;45732;52.850;6.896;2023-03-14T04:36:06;9.60;99.90
59855;DHT22;45732;52.850;6.896;2023-03-14T04:38:32;9.50;99.90
59855;DHT22;45732;52.850;6.896;2023-03-14T04:40:58;9.60;99.90
59855;DHT22;45732;52.850;6.896;2023-03-14T04:43:24;9.50;99.90
59855;DHT22;45732;52.850;6.896;2023-03-14T04:45:54;9.50;99.90
59855;DHT22;45732;52.850;6.896;2023-03-14T04:48:20;9.50;99.90
59855;DHT22;45732;52.850;6.896;2023-03-14T04:50:46;9.50;99.90
59855;DHT22;45732;52.850;6.896;2023-03-14T04:53:13;9.40;99.90
59855;DHT22;45732;52.850;6.896;2023-03-14T04:55:39;9.40;99.90
59855;DHT22;45732;52.850;6.896;2023-03-14T04:58:04;9.40;99.90
59855;DHT22;45732;52.850;6.896;2023-03-14T05:00:30;9.40;99.90
59855;DHT22;45732;52.850;6.896;2023-03-14T05:02:56;9.40;99.90
59855;DHT22;45732;52.850;6.896;2023-03-14T05:05:22;9.40;99.90
59855;DHT22;45732;52.850;6.896;2023-03-14T05:07:48;9.40;99.90
59855;DHT22;45732;52.850;6.896;2023-03-14T05:10:14;9.40;99.90
59855;DHT22;45732;52.850;6.896;2023-03-14T05:12:39;9.40;99.90
59855;DHT22;45732;52.850;6.896;2023-03-14T05:15:05;9.40;99.90
59855;DHT22;45732;52.850;6.896;2023-03-14T05:17:34;9.40;99.90
59855;DHT22;45732;52.850;6.896;2023-03-14T05:20:00;9.40;99.90
59855;DHT22;45732;52.850;6.896;2023-03-14T05:22:26;9.40;99.90
59855;DHT22;45732;52.850;6.896;2023-03-14T05:24:51;9.40;99.90
59855;DHT22;45732;52.850;6.896;2023-03-14T05:27:22;9.40;99.90
59855;DHT22;45732;52.850;6.896;2023-03-14T05:29:48;9.30;99.90
59855;DHT22;45732;52.850;6.896;2023-03-14T05:32:14;9.30;99.90
59855;DHT22;45732;52.850;6.896;2023-03-14T05:34:39;9.30;99.90
59855;DHT22;45732;52.850;6.896;2023-03-14T05:37:05;9.30;99.90
59855;DHT22;45732;52.850;6.896;2023-03-14T05:39:31;9.40;99.90
59855;DHT22;45732;52.850;6.896;2023-03-14T05:41:56;9.40;99.90
59855;DHT22;45732;52.850;6.896;2023-03-14T05:44:22;9.40;99.90
59855;DHT22;45732;52.850;6.896;2023-03-14T05:46:48;9.40;99.90
59855;DHT22;45732;52.850;6.896;2023-03-14T05:49:14;9.40;99.90
59855;DHT22;45732;52.850;6.896;2023-03-14T05:51:39;9.40;99.90
59855;DHT22;45732;52.850;6.896;2023-03-14T05:54:05;9.40;99.90
59855;DHT22;45732;52.850;6.896;2023-03-14T05:56:31;9.40;99.90
59855;DHT22;45732;52.850;6.896;2023-03-14T05:58:57;9.40;99.90
59855;DHT22;45732;52.850;6.896;2023-03-14T06:01:23;9.40;99.90
59855;DHT22;45732;52.850;6.896;2023-03-14T06:03:48;9.40;99.90
59855;DHT22;45732;52.850;6.896;2023-03-14T06:06:14;9.40;99.90
59855;DHT22;45732;52.850;6.896;2023-03-14T06:08:42;9.30;99.90
59855;DHT22;45732;52.850;6.896;2023-03-14T06:11:07;9.30;99.90
59855;DHT22;45732;52.850;6.896;2023-03-14T06:13:33;9.30;99.90
59855;DHT22;45732;52.850;6.896;2023-03-14T06:15:59;9.30;99.90
59855;DHT22;45732;52.850;6.896;2023-03-14T06:18:25;9.30;99.90
59855;DHT22;45732;52.850;6.896;2023-03-14T06:20:54;9.30;99.90
59855;DHT22;45732;52.850;6.896;2023-03-14T06:23:21;9.30;99.90
59855;DHT22;45732;52.850;6.896;2023-03-14T06:25:47;9.30;99.90
59855;DHT22;45732;52.850;6.896;2023-03-14T06:28:12;9.30;99.90
59855;DHT22;45732;52.850;6.896;2023-03-14T06:30:38;9.30;99.90
59855;DHT22;45732;52.850;6.896;2023-03-14T06:33:04;9.30;99.90
59855;DHT22;45732;52.850;6.896;2023-03-14T06:35:29;9.20;99.90
59855;DHT22;45732;52.850;6.896;2023-03-14T06:37:55;9.30;99.90
59855;DHT22;45732;52.850;6.896;2023-03-14T06:40:21;9.30;99.90
59855;DHT22;45732;52.850;6.896;2023-03-14T06:42:47;9.30;99.90
59855;DHT22;45732;52.850;6.896;2023-03-14T06:45:13;9.30;99.90
59855;DHT22;45732;52.850;6.896;2023-03-14T06:47:39;9.30;99.90
59855;DHT22;45732;52.850;6.896;2023-03-14T06:50:09;9.30;99.90
59855;DHT22;45732;52.850;6.896;2023-03-14T06:52:35;9.30;99.90
59855;DHT22;45732;52.850;6.896;2023-03-14T06:55:02;9.30;99.90
59855;DHT22;45732;52.850;6.896;2023-03-14T06:57:27;9.30;99.90
59855;DHT22;45732;52.850;6.896;2023-03-14T06:59:53;9.30;99.90
59855;DHT22;45732;52.850;6.896;2023-03-14T07:02:19;9.30;99.90
59855;DHT22;45732;52.850;6.896;2023-03-14T07:04:44;9.30;99.90
59855;DHT22;45732;52.850;6.896;2023-03-14T07:07:10;9.40;99.90
59855;DHT22;45732;52.850;6.896;2023-03-14T07:09:36;9.30;99.90
59855;DHT22;45732;52.850;6.896;2023-03-14T07:12:02;9.30;99.90
59855;DHT22;45732;52.850;6.896;2023-03-14T07:14:30;9.30;99.90
59855;DHT22;45732;52.850;6.896;2023-03-14T07:16:56;9.40;99.90
59855;DHT22;45732;52.850;6.896;2023-03-14T07:19:22;9.40;99.90
59855;DHT22;45732;52.850;6.896;2023-03-14T07:21:47;9.40;99.90
59855;DHT22;45732;52.850;6.896;2023-03-14T07:24:13;9.40;99.90
59855;DHT22;45732;52.850;6.896;2023-03-14T07:26:39;9.40;99.90
59855;DHT22;45732;52.850;6.896;2023-03-14T07:29:05;9.40;99.90
59855;DHT22;45732;52.850;6.896;2023-03-14T07:31:30;9.30;99.90
59855;DHT22;45732;52.850;6.896;2023-03-14T07:33:57;9.40;99.90
59855;DHT22;45732;52.850;6.896;2023-03-14T07:36:23;9.40;99.90
59855;DHT22;45732;52.850;6.896;2023-03-14T07:38:48;9.40;99.90
59855;DHT22;45732;52.850;6.896;2023-03-14T07:41:14;9.30;99.90
59855;DHT22;45732;52.850;6.896;2023-03-14T07:43:40;9.20;99.90
59855;DHT22;45732;52.850;6.896;2023-03-14T07:46:06;9.10;99.90
59855;DHT22;45732;52.850;6.896;2023-03-14T07:48:32;8.90;99.90
59855;DHT22;45732;52.850;6.896;2023-03-14T07:50:58;8.80;99.90
59855;DHT22;45732;52.850;6.896;2023-03-14T07:53:24;8.60;99.90
59855;DHT22;45732;52.850;6.896;2023-03-14T07:55:51;8.30;99.90
59855;DHT22;45732;52.850;6.896;2023-03-14T07:58:18;8.20;99.90
59855;DHT22;45732;52.850;6.896;2023-03-14T08:00:44;8.10;99.90
59855;DHT22;45732;52.850;6.896;2023-03-14T08:03:10;7.80;99.90
59855;DHT22;45732;52.850;6.896;2023-03-14T08:05:36;7.60;99.90
59855;DHT22;45732;52.850;6.896;2023-03-14T08:08:03;7.40;99.90
59855;DHT22;45732;52.850;6.896;2023-03-14T08:10:29;7.20;99.90
59855;DHT22;45732;52.850;6.896;2023-03-14T08:12:56;7.10;99.90
59855;DHT22;45732;52.850;6.896;2023-03-14T08:15:23;7.00;99.90
59855;DHT22;45732;52.850;6.896;2023-03-14T08:17:49;6.90;99.90
59855;DHT22;45732;52.850;6.896;2023-03-14T08:20:20;6.80;99.90
59855;DHT22;45732;52.850;6.896;2023-03-14T08:22:46;6.70;99.90
59855;DHT22;45732;52.850;6.896;2023-03-14T08:25:12;6.60;99.90
59855;DHT22;45732;52.850;6.896;2023-03-14T08:27:37;6.50;99.90
59855;DHT22;45732;52.850;6.896;2023-03-14T08:30:10;6.50;99.90
59855;DHT22;45732;52.850;6.896;2023-03-14T08:32:36;6.40;99.90
59855;DHT22;45732;52.850;6.896;2023-03-14T08:35:03;6.20;99.90
59855;DHT22;45732;52.850;6.896;2023-03-14T08:37:30;6.10;99.90
59855;DHT22;45732;52.850;6.896;2023-03-14T08:39:56;6.00;99.90
59855;DHT22;45732;52.850;6.896;2023-03-14T08:42:22;6.00;99.90
59855;DHT22;45732;52.850;6.896;2023-03-14T08:44:47;6.00;99.90
59855;DHT22;45732;52.850;6.896;2023-03-14T08:47:13;6.00;99.90
59855;DHT22;45732;52.850;6.896;2023-03-14T08:49:39;6.10;99.90
59855;DHT22;45732;52.850;6.896;2023-03-14T08:52:05;6.10;99.90
59855;DHT22;45732;52.850;6.896;2023-03-14T08:54:31;6.10;99.90
59855;DHT22;45732;52.850;6.896;2023-03-14T08:56:57;6.00;99.90
59855;DHT22;45732;52.850;6.896;2023-03-14T08:59:23;6.10;99.90
59855;DHT22;45732;52.850;6.896;2023-03-14T09:01:50;6.10;99.90
59855;DHT22;45732;52.850;6.896;2023-03-14T09:04:16;6.10;99.90
59855;DHT22;45732;52.850;6.896;2023-03-14T09:06:42;6.20;99.90
59855;DHT22;45732;52.850;6.896;2023-03-14T09:09:07;6.30;99.90
59855;DHT22;45732;52.850;6.896;2023-03-14T09:11:33;6.30;99.90
59855;DHT22;45732;52.850;6.896;2023-03-14T09:13:59;6.40;99.90
59855;DHT22;45732;52.850;6.896;2023-03-14T09:16:25;6.40;99.90
59855;DHT22;45732;52.850;6.896;2023-03-14T09:18:51;6.40;99.90
59855;DHT22;45732;52.850;6.896;2023-03-14T09:21:20;6.50;99.90
59855;DHT22;45732;52.850;6.896;2023-03-14T09:23:46;6.50;99.90
59855;DHT22;45732;52.850;6.896;2023-03-14T09:26:12;6.60;99.90
59855;DHT22;45732;52.850;6.896;2023-03-14T09:28:38;6.70;99.90
59855;DHT22;45732;52.850;6.896;2023-03-14T09:31:11;6.70;99.90
59855;DHT22;45732;52.850;6.896;2023-03-14T09:33:37;6.80;99.90
59855;DHT22;45732;52.850;6.896;2023-03-14T09:36:03;6.70;99.90
59855;DHT22;45732;52.850;6.896;2023-03-14T09:38:29;6.70;99.90
59855;DHT22;45732;52.850;6.896;2023-03-14T09:40:57;6.70;99.90
59855;DHT22;45732;52.850;6.896;2023-03-14T09:43:24;6.80;99.90
59855;DHT22;45732;52.850;6.896;2023-03-14T09:45:51;6.90;99.90
59855;DHT22;45732;52.850;6.896;2023-03-14T09:48:23;6.90;99.90
59855;DHT22;45732;52.850;6.896;2023-03-14T09:50:54;7.00;99.90
59855;DHT22;45732;52.850;6.896;2023-03-14T09:53:24;7.10;99.90
59855;DHT22;45732;52.850;6.896;2023-03-14T09:55:53;7.20;99.90
59855;DHT22;45732;52.850;6.896;2023-03-14T09:58:22;7.20;99.90
59855;DHT22;45732;52.850;6.896;2023-03-14T10:00:54;7.30;99.90
59855;DHT22;45732;52.850;6.896;2023-03-14T10:03:34;7.30;99.90
59855;DHT22;45732;52.850;6.896;2023-03-14T10:06:00;7.40;99.90
59855;DHT22;45732;52.850;6.896;2023-03-14T10:08:26;7.50;99.90
59855;DHT22;45732;52.850;6.896;2023-03-14T10:10:52;7.50;99.90
59855;DHT22;45732;52.850;6.896;2023-03-14T10:13:24;7.50;99.90
59855;DHT22;45732;52.850;6.896;2023-03-14T10:15:56;7.50;99.90
59855;DHT22;45732;52.850;6.896;2023-03-14T10:18:24;7.50;99.90
59855;DHT22;45732;52.850;6.896;2023-03-14T10:21:06;7.40;99.90
59855;DHT22;45732;52.850;6.896;2023-03-14T10:23:33;7.40;99.90
59855;DHT22;45732;52.850;6.896;2023-03-14T10:26:07;7.40;99.90
59855;DHT22;45732;52.850;6.896;2023-03-14T10:28:46;7.30;99.90
59855;DHT22;45732;52.850;6.896;2023-03-14T10:31:12;7.20;99.90
59855;DHT22;45732;52.850;6.896;2023-03-14T10:33:38;7.20;99.90
59855;DHT22;45732;52.850;6.896;2023-03-14T10:36:24;7.20;99.90
59855;DHT22;45732;52.850;6.896;2023-03-14T10:38:58;7.30;99.90
59855;DHT22;45732;52.850;6.896;2023-03-14T10:41:31;7.40;99.90
59855;DHT22;45732;52.850;6.896;2023-03-14T10:43:59;7.40;99.90
59855;DHT22;45732;52.850;6.896;2023-03-14T10:46:30;7.50;99.90
59855;DHT22;45732;52.850;6.896;2023-03-14T10:48:56;7.60;99.90
59855;DHT22;45732;52.850;6.896;2023-03-14T10:51:27;7.60;99.90
59855;DHT22;45732;52.850;6.896;2023-03-14T10:54:02;7.60;99.90
59855;DHT22;45732;52.850;6.896;2023-03-14T10:56:34;7.60;99.90
59855;DHT22;45732;52.850;6.896;2023-03-14T10:59:01;7.50;99.90
59855;DHT22;45732;52.850;6.896;2023-03-14T11:02:07;7.40;99.90
59855;DHT22;45732;52.850;6.896;2023-03-14T11:15:58;7.60;99.90
59855;DHT22;45732;52.850;6.896;2023-03-14T11:20:59;7.70;99.90
59855;DHT22;45732;52.850;6.896;2023-03-14T11:23:53;7.70;99.90
59855;DHT22;45732;52.850;6.896;2023-03-14T11:29:08;7.60;99.90
59855;DHT22;45732;52.850;6.896;2023-03-14T11:31:39;7.60;99.90
59855;DHT22;45732;52.850;6.896;2023-03-14T11:39:53;7.60;99.90
59855;DHT22;45732;52.850;6.896;2023-03-14T11:42:21;7.60;99.90
59855;DHT22;45732;52.850;6.896;2023-03-14T11:44:49;7.60;99.90
59855;DHT22;45732;52.850;6.896;2023-03-14T11:50:04;7.50;99.90
59855;DHT22;45732;52.850;6.896;2023-03-14T11:55:40;7.50;99.90
59855;DHT22;45732;52.850;6.896;2023-03-14T11:58:26;7.60;99.90
59855;DHT22;45732;52.850;6.896;2023-03-14T12:00:54;7.60;99.90
59855;DHT22;45732;52.850;6.896;2023-03-14T12:06:28;7.70;99.90
59855;DHT22;45732;52.850;6.896;2023-03-14T12:08:58;7.80;99.90
59855;DHT22;45732;52.850;6.896;2023-03-14T12:11:46;8.00;99.90
59855;DHT22;45732;52.850;6.896;2023-03-14T12:14:33;7.90;99.90
59855;DHT22;45732;52.850;6.896;2023-03-14T12:17:21;7.80;99.90
59855;DHT22;45732;52.850;6.896;2023-03-14T12:19:59;7.90;99.90
59855;DHT22;45732;52.850;6.896;2023-03-14T12:22:34;7.70;99.90
59855;DHT22;45732;52.850;6.896;2023-03-14T12:25:04;7.70;99.90
59855;DHT22;45732;52.850;6.896;2023-03-14T12:27:46;7.80;99.90
59855;DHT22;45732;52.850;6.896;2023-03-14T12:30:17;7.70;99.90
59855;DHT22;45732;52.850;6.896;2023-03-14T12:38:26;7.40;99.90
59855;DHT22;45732;52.850;6.896;2023-03-14T12:41:11;7.50;99.90
59855;DHT22;45732;52.850;6.896;2023-03-14T12:43:38;7.50;99.90
59855;DHT22;45732;52.850;6.896;2023-03-14T12:48:35;7.80;99.90
59855;DHT22;45732;52.850;6.896;2023-03-14T12:51:05;7.80;99.90
59855;DHT22;45732;52.850;6.896;2023-03-14T12:59:28;7.70;99.90
59855;DHT22;45732;52.850;6.896;2023-03-14T13:04:34;7.60;99.90
59855;DHT22;45732;52.850;6.896;2023-03-14T13:07:02;7.80;99.90
59855;DHT22;45732;52.850;6.896;2023-03-14T13:12:09;8.00;99.90
59855;DHT22;45732;52.850;6.896;2023-03-14T13:14:40;8.00;99.90
59855;DHT22;45732;52.850;6.896;2023-03-14T13:17:10;8.10;99.90
59855;DHT22;45732;52.850;6.896;2023-03-14T13:19:37;8.00;99.90
59855;DHT22;45732;52.850;6.896;2023-03-14T13:22:06;7.90;99.90
59855;DHT22;45732;52.850;6.896;2023-03-14T13:24:39;7.70;99.90
59855;DHT22;45732;52.850;6.896;2023-03-14T13:27:16;7.70;99.90
59855;DHT22;45732;52.850;6.896;2023-03-14T13:29:43;7.80;99.90
59855;DHT22;45732;52.850;6.896;2023-03-14T13:32:28;7.90;99.90
59855;DHT22;45732;52.850;6.896;2023-03-14T13:34:58;7.90;99.90
59855;DHT22;45732;52.850;6.896;2023-03-14T13:37:26;7.90;99.90
59855;DHT22;45732;52.850;6.896;2023-03-14T13:39:53;7.90;99.90
59855;DHT22;45732;52.850;6.896;2023-03-14T13:42:24;8.00;99.90
59855;DHT22;45732;52.850;6.896;2023-03-14T13:44:53;8.10;99.90
59855;DHT22;45732;52.850;6.896;2023-03-14T13:47:21;8.30;99.90
59855;DHT22;45732;52.850;6.896;2023-03-14T13:49:49;8.30;99.90
59855;DHT22;45732;52.850;6.896;2023-03-14T13:52:30;8.20;99.90
59855;DHT22;45732;52.850;6.896;2023-03-14T13:54:59;8.40;99.90
59855;DHT22;45732;52.850;6.896;2023-03-14T13:57:26;8.40;99.90
59855;DHT22;45732;52.850;6.896;2023-03-14T14:00:00;8.40;99.90
59855;DHT22;45732;52.850;6.896;2023-03-14T14:02:26;8.20;99.90
59855;DHT22;45732;52.850;6.896;2023-03-14T14:04:53;8.30;99.90
59855;DHT22;45732;52.850;6.896;2023-03-14T14:07:19;8.10;99.90
59855;DHT22;45732;52.850;6.896;2023-03-14T14:09:50;8.10;99.90
59855;DHT22;45732;52.850;6.896;2023-03-14T14:12:17;8.00;99.90
59855;DHT22;45732;52.850;6.896;2023-03-14T14:14:52;7.90;99.90
59855;DHT22;45732;52.850;6.896;2023-03-14T14:17:23;7.90;99.90
59855;DHT22;45732;52.850;6.896;2023-03-14T14:19:51;7.90;99.90
59855;DHT22;45732;52.850;6.896;2023-03-14T14:22:18;8.00;99.90
59855;DHT22;45732;52.850;6.896;2023-03-14T14:24:45;8.10;99.90
59855;DHT22;45732;52.850;6.896;2023-03-14T14:29:40;7.90;99.90
59855;DHT22;45732;52.850;6.896;2023-03-14T14:34:45;7.70;99.90
59855;DHT22;45732;52.850;6.896;2023-03-14T14:37:25;7.70;99.90
59855;DHT22;45732;52.850;6.896;2023-03-14T14:39:54;7.70;99.90
59855;DHT22;45732;52.850;6.896;2023-03-14T14:42:22;7.60;99.90
59855;DHT22;45732;52.850;6.896;2023-03-14T14:44:51;7.50;99.90
59855;DHT22;45732;52.850;6.896;2023-03-14T14:47:22;7.30;99.90
59855;DHT22;45732;52.850;6.896;2023-03-14T14:49:49;7.30;99.90
59855;DHT22;45732;52.850;6.896;2023-03-14T14:52:37;7.30;99.90
59855;DHT22;45732;52.850;6.896;2023-03-14T14:55:13;7.20;99.90
59855;DHT22;45732;52.850;6.896;2023-03-14T14:57:52;7.20;99.90
59855;DHT22;45732;52.850;6.896;2023-03-14T15:00:21;7.20;99.90
59855;DHT22;45732;52.850;6.896;2023-03-14T15:02:49;7.20;99.90
59855;DHT22;45732;52.850;6.896;2023-03-14T15:05:19;7.40;99.90
59855;DHT22;45732;52.850;6.896;2023-03-14T15:07:46;7.50;99.90
59855;DHT22;45732;52.850;6.896;2023-03-14T15:10:21;7.50;99.90
59855;DHT22;45732;52.850;6.896;2023-03-14T15:12:47;7.40;99.90
59855;DHT22;45732;52.850;6.896;2023-03-14T15:15:13;7.50;99.90
59855;DHT22;45732;52.850;6.896;2023-03-14T15:17:39;7.50;99.90
59855;DHT22;45732;52.850;6.896;2023-03-14T15:20:09;7.50;99.90
59855;DHT22;45732;52.850;6.896;2023-03-14T15:22:35;7.50;99.90
59855;DHT22;45732;52.850;6.896;2023-03-14T15:25:01;7.60;99.90
59855;DHT22;45732;52.850;6.896;2023-03-14T15:27:28;7.60;99.90
59855;DHT22;45732;52.850;6.896;2023-03-14T15:29:56;7.70;99.90
59855;DHT22;45732;52.850;6.896;2023-03-14T15:32:21;7.60;99.90
59855;DHT22;45732;52.850;6.896;2023-03-14T15:34:47;7.50;99.90
59855;DHT22;45732;52.850;6.896;2023-03-14T15:37:15;7.40;99.90
59855;DHT22;45732;52.850;6.896;2023-03-14T15:39:42;7.40;99.90
59855;DHT22;45732;52.850;6.896;2023-03-14T15:42:08;7.30;99.90
59855;DHT22;45732;52.850;6.896;2023-03-14T15:44:34;7.30;99.90
59855;DHT22;45732;52.850;6.896;2023-03-14T15:47:00;7.20;99.90
59855;DHT22;45732;52.850;6.896;2023-03-14T15:49:27;7.50;99.90
59855;DHT22;45732;52.850;6.896;2023-03-14T15:51:52;7.70;99.90
59855;DHT22;45732;52.850;6.896;2023-03-14T15:54:19;8.00;99.90
59855;DHT22;45732;52.850;6.896;2023-03-14T15:56:44;8.30;99.90
59855;DHT22;45732;52.850;6.896;2023-03-14T15:59:10;8.20;99.90
59855;DHT22;45732;52.850;6.896;2023-03-14T16:01:36;8.00;99.90
59855;DHT22;45732;52.850;6.896;2023-03-14T16:04:02;7.90;99.90
59855;DHT22;45732;52.850;6.896;2023-03-14T16:06:28;8.10;99.90
59855;DHT22;45732;52.850;6.896;2023-03-14T16:08:54;8.40;99.90
59855;DHT22;45732;52.850;6.896;2023-03-14T16:11:20;8.50;99.90
59855;DHT22;45732;52.850;6.896;2023-03-14T16:13:46;8.50;99.90
59855;DHT22;45732;52.850;6.896;2023-03-14T16:16:13;8.60;99.90
59855;DHT22;45732;52.850;6.896;2023-03-14T16:18:39;8.70;99.90
59855;DHT22;45732;52.850;6.896;2023-03-14T16:21:11;8.70;99.90
59855;DHT22;45732;52.850;6.896;2023-03-14T16:23:37;8.30;99.90
59855;DHT22;45732;52.850;6.896;2023-03-14T16:26:05;8.10;99.90
59855;DHT22;45732;52.850;6.896;2023-03-14T16:28:31;7.80;99.90
59855;DHT22;45732;52.850;6.896;2023-03-14T16:31:04;7.70;99.90
59855;DHT22;45732;52.850;6.896;2023-03-14T16:33:31;7.50;99.90
59855;DHT22;45732;52.850;6.896;2023-03-14T16:35:59;7.30;99.90
59855;DHT22;45732;52.850;6.896;2023-03-14T16:38:33;7.20;99.90
59855;DHT22;45732;52.850;6.896;2023-03-14T16:41:02;6.90;99.90
59855;DHT22;45732;52.850;6.896;2023-03-14T16:43:29;6.70;99.90
59855;DHT22;45732;52.850;6.896;2023-03-14T16:45:58;6.70;99.90
59855;DHT22;45732;52.850;6.896;2023-03-14T16:48:25;6.60;99.90